createdAt,value
2022-11-18T00:00:49.839Z,28.0
2022-11-18T00:02:49.645Z,24.3
2022-11-18T00:04:50.475Z,24.3
2022-11-18T00:06:50.535Z,23.6
2022-11-18T00:08:49.988Z,25.1
2022-11-18T00:10:50.521Z,25.1
2022-11-18T00:12:50.106Z,27.0
2022-11-18T00:14:49.615Z,20.5
2022-11-18T00:16:50.313Z,24.9
2022-11-18T00:18:50.148Z,24.9
2022-11-18T00:20:49.663Z,27.2
2022-11-18T00:22:50.270Z,32.0
2022-11-18T00:24:49.740Z,32.6
2022-11-18T00:26:50.588Z,25.9
2022-11-18T00:28:50.370Z,25.9
2022-11-18T00:30:49.781Z,26.8
2022-11-18T00:32:50.284Z,29.2
2022-11-18T00:34:50.257Z,26.2
2022-11-18T00:36:50.185Z,27.1
2022-11-18T00:38:49.910Z,27.1
2022-11-18T00:40:50.312Z,23.3
2022-11-18T00:42:50.050Z,30.9
2022-11-18T00:44:50.472Z,24.3
2022-11-18T00:46:50.304Z,28.5
2022-11-18T00:48:49.807Z,28.5
2022-11-18T00:50:50.426Z,36.5
2022-11-18T00:52:50.085Z,23.3
2022-11-18T00:54:49.635Z,30.9
2022-11-18T00:56:50.391Z,30.9
2022-11-18T00:58:49.938Z,27.2
2022-11-18T01:00:50.567Z,24.0
2022-11-18T01:02:49.597Z,28.8
2022-11-18T01:04:49.769Z,19.8
2022-11-18T01:06:49.737Z,19.8
2022-11-18T01:08:50.390Z,29.0
2022-11-18T01:10:49.840Z,24.8
2022-11-18T01:12:54.222Z,27.6
2022-11-18T01:14:50.032Z,27.6
2022-11-18T01:16:49.646Z,28.1
2022-11-18T01:18:50.221Z,28.7
2022-11-18T01:20:49.688Z,27.6
2022-11-18T01:22:50.212Z,27.6
2022-11-18T01:24:50.165Z,28.6
2022-11-18T01:26:49.585Z,28.6
2022-11-18T01:28:50.142Z,25.1
2022-11-18T01:30:49.974Z,28.6
2022-11-18T01:32:49.573Z,28.6
2022-11-18T01:34:49.760Z,35.0
2022-11-18T01:36:49.947Z,35.0
2022-11-18T01:38:50.491Z,30.0
2022-11-18T01:40:50.361Z,31.3
2022-11-18T01:42:49.885Z,25.8
2022-11-18T01:44:49.594Z,25.8
2022-11-18T01:46:50.474Z,31.7
2022-11-18T01:48:50.240Z,37.7
2022-11-18T01:50:49.706Z,29.7
2022-11-18T01:52:51.565Z,29.7
2022-11-18T01:54:50.528Z,19.7
2022-11-18T01:56:50.183Z,31.8
2022-11-18T01:58:49.828Z,31.9
2022-11-18T02:00:50.264Z,25.0
2022-11-18T02:02:49.772Z,21.3
2022-11-18T02:04:49.692Z,21.3
2022-11-18T02:06:50.556Z,33.9
2022-11-18T02:08:50.264Z,33.9
2022-11-18T02:10:49.789Z,33.0
2022-11-18T02:12:50.331Z,21.6
2022-11-18T02:14:50.076Z,21.6
2022-11-18T02:16:49.928Z,21.2
2022-11-18T02:18:50.425Z,21.0
2022-11-18T02:20:50.080Z,29.7
2022-11-18T02:22:50.472Z,25.4
2022-11-18T02:24:50.112Z,25.4
2022-11-18T02:26:49.875Z,23.2
2022-11-18T02:28:50.392Z,19.3
2022-11-18T02:30:50.028Z,18.7
2022-11-18T02:32:50.404Z,22.9
2022-11-18T02:34:50.421Z,22.9
2022-11-18T02:36:50.156Z,24.5
2022-11-18T02:38:49.659Z,17.4
2022-11-18T02:40:50.437Z,16.6
2022-11-18T02:42:50.056Z,23.5
2022-11-18T02:44:50.494Z,23.5
2022-11-18T02:46:50.323Z,25.0
2022-11-18T02:48:49.737Z,29.1
2022-11-18T02:50:50.239Z,29.8
2022-11-18T02:52:49.729Z,34.3
2022-11-18T02:54:50.129Z,34.3
2022-11-18T02:56:50.093Z,29.5
2022-11-18T02:58:49.634Z,26.7
2022-11-18T03:00:50.333Z,26.7
2022-11-18T03:02:49.768Z,30.6
2022-11-18T03:04:49.939Z,29.6
2022-11-18T03:06:49.863Z,27.3
2022-11-18T03:08:49.781Z,27.3
2022-11-18T03:10:50.470Z,29.9
2022-11-18T03:12:49.865Z,29.9
2022-11-18T03:14:50.392Z,37.6
2022-11-18T03:16:50.178Z,26.0
2022-11-18T03:18:49.814Z,30.5
2022-11-18T03:20:50.310Z,27.6
2022-11-18T03:22:49.998Z,27.6
2022-11-18T03:24:50.506Z,29.2
2022-11-18T03:26:50.349Z,21.4
2022-11-18T03:28:49.875Z,27.4
2022-11-18T03:30:50.357Z,27.4
2022-11-18T03:32:50.153Z,31.3
2022-11-18T03:34:50.100Z,26.8
2022-11-18T03:36:51.895Z,31.8
2022-11-18T03:38:50.032Z,32.2
2022-11-18T03:40:50.622Z,32.2
2022-11-18T03:42:50.376Z,36.5
2022-11-18T03:44:52.483Z,28.8
2022-11-18T03:46:49.628Z,33.6
2022-11-18T03:48:50.201Z,30.7
2022-11-18T03:50:49.715Z,30.7
2022-11-18T03:52:50.170Z,27.9
2022-11-18T03:54:49.686Z,23.1
2022-11-18T03:56:50.496Z,31.9
2022-11-18T03:58:50.264Z,31.9
2022-11-18T04:00:49.815Z,34.6
2022-11-18T04:02:50.282Z,33.7
2022-11-18T04:04:50.333Z,38.6
2022-11-18T04:06:50.145Z,32.8
2022-11-18T04:08:49.833Z,32.8
2022-11-18T04:10:50.246Z,40.6
2022-11-18T04:12:49.954Z,34.1
2022-11-18T04:14:50.417Z,31.3
2022-11-18T04:16:50.403Z,31.3
2022-11-18T04:18:50.131Z,33.8
2022-11-18T04:20:50.506Z,32.7
2022-11-18T04:22:50.142Z,36.2
2022-11-18T04:24:49.753Z,34.5
2022-11-18T04:26:49.693Z,34.5
2022-11-18T04:28:50.141Z,38.8
2022-11-18T04:30:49.776Z,35.2
2022-11-18T04:32:50.173Z,34.3
2022-11-18T04:34:50.124Z,25.1
2022-11-18T04:36:49.985Z,34.7
2022-11-18T04:38:49.624Z,34.7
2022-11-18T04:40:50.172Z,36.9
2022-11-18T04:42:50.484Z,38.4
2022-11-18T04:44:50.238Z,34.4
2022-11-18T04:46:50.051Z,34.4
2022-11-18T04:48:49.570Z,38.6
2022-11-18T04:50:50.291Z,36.6
2022-11-18T04:52:49.818Z,31.8
2022-11-18T04:54:50.140Z,32.5
2022-11-18T04:56:50.116Z,32.5
2022-11-18T04:58:49.610Z,32.3
2022-11-18T05:00:50.200Z,32.3
2022-11-18T05:02:50.141Z,33.0
2022-11-18T05:04:50.101Z,33.0
2022-11-18T05:06:50.001Z,28.3
2022-11-18T05:08:50.347Z,30.7
2022-11-18T05:10:49.853Z,33.8
2022-11-18T05:12:50.359Z,33.8
2022-11-18T05:14:50.958Z,27.5
2022-11-18T05:16:50.231Z,27.5
2022-11-18T05:18:49.737Z,29.5
2022-11-18T05:20:50.354Z,31.3
2022-11-18T05:22:49.970Z,31.8
2022-11-18T05:24:50.411Z,34.0
2022-11-18T05:26:50.160Z,34.0
2022-11-18T05:28:49.768Z,36.8
2022-11-18T05:30:50.167Z,30.8
2022-11-18T05:32:49.990Z,27.7
2022-11-18T05:34:50.057Z,34.6
2022-11-18T05:36:50.015Z,34.6
2022-11-18T05:38:49.626Z,34.0
2022-11-18T05:40:50.004Z,27.9
2022-11-18T05:42:49.731Z,28.6
2022-11-18T05:44:54.594Z,29.7
2022-11-18T05:46:49.725Z,29.7
2022-11-18T05:48:50.246Z,28.9
2022-11-18T05:50:49.861Z,22.9
2022-11-18T05:52:49.587Z,27.2
2022-11-18T05:54:50.029Z,27.2
2022-11-18T05:56:49.993Z,27.8
2022-11-18T05:58:50.550Z,29.9
2022-11-18T06:00:50.100Z,22.6
2022-11-18T06:02:49.844Z,26.3
2022-11-18T06:04:50.298Z,26.3
2022-11-18T06:06:50.400Z,37.8
2022-11-18T06:08:49.954Z,26.4
2022-11-18T06:10:50.370Z,22.7
2022-11-18T06:12:49.928Z,22.3
2022-11-18T06:14:50.471Z,22.3
2022-11-18T06:16:50.134Z,24.3
2022-11-18T06:18:49.723Z,20.6
2022-11-18T06:20:50.108Z,23.0
2022-11-18T06:22:49.719Z,22.6
2022-11-18T06:24:50.101Z,22.6
2022-11-18T06:26:50.015Z,17.1
2022-11-18T06:28:49.674Z,17.6
2022-11-18T06:30:50.155Z,22.6
2022-11-18T06:32:49.851Z,22.6
2022-11-18T06:34:49.789Z,20.2
2022-11-18T06:36:49.681Z,22.0
2022-11-18T06:38:50.118Z,22.0
2022-11-18T06:40:49.593Z,19.5
2022-11-18T06:42:50.240Z,13.8
2022-11-18T06:44:49.839Z,13.8
2022-11-18T06:46:49.929Z,21.0
2022-11-18T06:48:50.279Z,23.9
2022-11-18T06:50:49.784Z,23.9
2022-11-18T06:52:50.360Z,18.6
2022-11-18T06:54:49.806Z,16.6
2022-11-18T06:56:49.792Z,17.5
2022-11-18T06:58:50.382Z,18.8
2022-11-18T07:00:49.863Z,19.9
2022-11-18T07:02:49.841Z,19.9
2022-11-18T07:04:49.880Z,18.1
2022-11-18T07:06:49.640Z,18.4
2022-11-18T07:08:50.170Z,18.3
2022-11-18T07:10:49.826Z,18.3
2022-11-18T07:12:50.401Z,18.7
2022-11-18T07:14:49.706Z,16.9
2022-11-18T07:16:49.796Z,17.6
2022-11-18T07:18:50.172Z,20.8
2022-11-18T07:20:49.813Z,20.8
2022-11-18T07:22:50.317Z,18.2
2022-11-18T07:24:49.705Z,17.5
2022-11-18T07:26:49.623Z,18.1
2022-11-18T07:28:50.053Z,18.1
2022-11-18T07:30:49.729Z,14.2
2022-11-18T07:32:50.135Z,15.9
2022-11-18T07:34:50.094Z,15.7
2022-11-18T07:36:49.944Z,19.4
2022-11-18T07:38:50.472Z,19.4
2022-11-18T07:40:50.047Z,16.1
2022-11-18T07:42:50.472Z,16.8
2022-11-18T07:44:50.384Z,16.7
2022-11-18T07:46:50.230Z,15.7
2022-11-18T07:48:49.946Z,15.7
2022-11-18T07:50:50.509Z,14.1
2022-11-18T07:52:50.023Z,15.0
2022-11-18T07:54:49.768Z,16.2
2022-11-18T07:56:49.606Z,16.6
2022-11-18T07:58:49.944Z,16.6
2022-11-18T08:00:49.632Z,17.2
2022-11-18T08:02:49.968Z,15.1
2022-11-18T08:04:49.795Z,15.5
2022-11-18T08:06:49.921Z,12.6
2022-11-18T08:08:50.448Z,12.6
2022-11-18T08:10:49.986Z,9.6
2022-11-18T08:12:50.475Z,10.8
2022-11-18T08:14:50.510Z,9.5
2022-11-18T08:16:50.469Z,6.5
2022-11-18T08:18:50.057Z,6.0
2022-11-18T08:20:50.533Z,6.0
2022-11-18T08:22:49.978Z,4.9
2022-11-18T08:24:49.803Z,4.6
2022-11-18T08:26:49.753Z,4.0
2022-11-18T08:28:50.434Z,4.4
2022-11-18T08:30:50.443Z,4.4
2022-11-18T08:32:50.068Z,3.4
2022-11-18T08:34:50.095Z,4.1
2022-11-18T08:36:50.102Z,3.9
2022-11-18T08:38:50.544Z,3.9
2022-11-18T08:40:50.004Z,3.2
2022-11-18T08:42:49.728Z,4.1
2022-11-18T08:44:50.108Z,3.6
2022-11-18T08:46:50.077Z,3.6
2022-11-18T08:48:50.491Z,3.2
2022-11-18T08:50:49.984Z,3.2
2022-11-18T08:52:50.521Z,3.1
2022-11-18T08:54:50.097Z,3.5
2022-11-18T08:56:49.953Z,3.3
2022-11-18T08:58:50.507Z,3.3
2022-11-18T09:00:50.085Z,3.0
2022-11-18T09:02:50.550Z,3.4
2022-11-18T09:04:50.010Z,3.0
2022-11-18T09:06:49.943Z,2.5
2022-11-18T09:08:50.499Z,2.5
2022-11-18T09:10:50.206Z,2.4
2022-11-18T09:12:49.696Z,3.1
2022-11-18T09:15:14.400Z,2.6
2022-11-18T09:16:50.413Z,2.6
2022-11-18T09:18:49.943Z,3.1
2022-11-18T09:20:50.550Z,2.6
2022-11-18T09:22:50.058Z,2.6
2022-11-18T09:24:49.682Z,2.6
2022-11-18T09:26:50.542Z,2.3
2022-11-18T09:28:50.021Z,2.2
2022-11-18T09:30:49.633Z,1.9
2022-11-18T09:32:50.089Z,2.8
2022-11-18T09:34:50.137Z,2.8
2022-11-18T09:36:50.000Z,1.7
2022-11-18T09:38:52.894Z,1.7
2022-11-18T09:40:50.079Z,2.0
2022-11-18T09:42:49.865Z,2.5
2022-11-18T09:44:50.492Z,2.5
2022-11-18T09:46:50.253Z,2.5
2022-11-18T09:48:49.899Z,8.3
2022-11-18T09:50:50.913Z,2.0
2022-11-18T09:52:50.265Z,2.3
2022-11-18T09:54:49.821Z,2.2
2022-11-18T09:56:50.558Z,2.2
2022-11-18T09:58:49.657Z,1.9
2022-11-18T10:00:50.109Z,2.1
2022-11-18T10:02:49.778Z,2.3
2022-11-18T10:04:49.672Z,2.3
2022-11-18T10:06:49.705Z,2.2
2022-11-18T10:08:50.374Z,2.3
2022-11-18T10:10:49.751Z,2.9
2022-11-18T10:12:50.395Z,3.7
2022-11-18T10:14:49.784Z,3.7
2022-11-18T10:16:52.720Z,2.2
2022-11-18T10:19:00.504Z,2.1
2022-11-18T10:20:49.570Z,1.8
2022-11-18T10:22:50.066Z,2.9
2022-11-18T10:24:49.597Z,2.9
2022-11-18T10:26:50.307Z,2.0
2022-11-18T10:28:49.781Z,2.5
2022-11-18T10:30:50.383Z,2.6
2022-11-18T10:32:50.029Z,2.6
2022-11-18T10:34:50.046Z,2.0
2022-11-18T10:36:49.916Z,2.6
2022-11-18T10:38:50.497Z,2.4
2022-11-18T10:40:49.978Z,4.4
2022-11-18T10:42:50.524Z,4.4
2022-11-18T10:44:50.222Z,2.0
2022-11-18T10:46:49.850Z,2.1
2022-11-18T10:48:50.455Z,1.7
2022-11-18T10:50:54.970Z,1.9
2022-11-18T10:52:49.631Z,1.9
2022-11-18T10:54:50.212Z,1.7
2022-11-18T10:56:53.502Z,2.9
2022-11-18T10:58:50.199Z,2.0
2022-11-18T11:00:49.780Z,2.0
2022-11-18T11:02:50.448Z,2.1
2022-11-18T11:04:50.324Z,2.0
2022-11-18T11:06:50.204Z,3.3
2022-11-18T11:08:49.727Z,2.1
2022-11-18T11:10:52.729Z,2.1
2022-11-18T11:12:50.517Z,2.3
2022-11-18T11:14:50.045Z,2.5
2022-11-18T11:16:49.870Z,2.4
2022-11-18T11:18:50.488Z,2.8
2022-11-18T11:20:49.851Z,2.8
2022-11-18T11:22:49.579Z,2.8
2022-11-18T11:24:50.006Z,2.5
2022-11-18T11:28:49.727Z,2.8
2022-11-18T11:30:50.099Z,2.4
2022-11-18T11:32:49.679Z,2.4
2022-11-18T11:34:49.602Z,2.6
2022-11-18T11:36:50.348Z,2.7
2022-11-18T11:38:49.695Z,2.7
2022-11-18T11:40:50.059Z,2.6
2022-11-18T11:42:50.511Z,3.8
2022-11-18T11:44:49.833Z,3.8
2022-11-18T11:46:49.579Z,2.6
2022-11-18T11:48:49.911Z,2.7
2022-11-18T11:50:55.912Z,2.7
2022-11-18T11:52:49.987Z,2.7
2022-11-18T11:54:50.434Z,2.9
2022-11-18T11:56:50.115Z,3.0
2022-11-18T11:58:49.549Z,3.0
2022-11-18T12:00:49.916Z,3.0
2022-11-18T12:02:50.380Z,2.8
2022-11-18T12:04:49.714Z,3.4
2022-11-18T12:06:50.467Z,4.1
2022-11-18T12:08:49.970Z,4.1
2022-11-18T12:10:50.337Z,3.1
2022-11-18T12:12:50.029Z,3.3
2022-11-18T12:14:50.440Z,3.3
2022-11-18T12:16:50.144Z,3.5
2022-11-18T12:18:49.727Z,3.2
2022-11-18T12:20:50.196Z,3.2
2022-11-18T12:22:49.912Z,3.0
2022-11-18T12:24:50.510Z,3.1
2022-11-18T12:26:50.399Z,2.5
2022-11-18T12:28:49.739Z,2.7
2022-11-18T12:30:50.383Z,2.7
2022-11-18T12:32:49.787Z,2.6
2022-11-18T12:34:49.691Z,2.4
2022-11-18T12:36:50.343Z,2.3
2022-11-18T12:38:49.670Z,2.3
2022-11-18T12:40:52.887Z,2.2
2022-11-18T12:42:49.684Z,2.4
2022-11-18T12:44:50.039Z,2.4
2022-11-18T12:46:49.559Z,2.3
2022-11-18T12:48:49.876Z,2.3
2022-11-18T12:50:50.468Z,2.2
2022-11-18T12:52:49.904Z,2.3
2022-11-18T12:54:50.422Z,2.3
2022-11-18T12:56:50.048Z,2.6
2022-11-18T12:58:50.454Z,2.6
2022-11-18T13:00:50.201Z,3.2
2022-11-18T13:02:50.153Z,2.5
2022-11-18T13:04:53.144Z,2.5
2022-11-18T13:06:50.150Z,2.5
2022-11-18T13:08:49.609Z,2.5
2022-11-18T13:10:54.561Z,2.8
2022-11-18T13:12:50.432Z,3.1
2022-11-18T13:14:50.091Z,3.7
2022-11-18T13:16:49.644Z,3.7
2022-11-18T13:18:49.972Z,3.4
2022-11-18T13:20:50.513Z,3.4
2022-11-18T13:22:49.884Z,3.8
2022-11-18T13:24:50.403Z,3.9
2022-11-18T13:26:50.048Z,3.7
2022-11-18T13:28:50.469Z,3.7
2022-11-18T13:30:50.008Z,3.9
2022-11-18T13:32:50.464Z,4.5
2022-11-18T13:34:50.332Z,4.7
2022-11-18T13:36:49.998Z,4.7
2022-11-18T13:38:50.470Z,4.4
2022-11-18T13:40:49.918Z,4.9
2022-11-18T13:42:50.371Z,5.3
2022-11-18T13:44:50.165Z,5.3
2022-11-18T13:46:49.784Z,4.5
2022-11-18T13:48:50.271Z,4.4
2022-11-18T13:50:49.770Z,4.6
2022-11-18T13:52:50.263Z,4.2
2022-11-18T13:54:49.859Z,4.2
2022-11-18T13:56:50.521Z,4.9
2022-11-18T13:59:17.688Z,4.7
2022-11-18T14:00:50.093Z,4.2
2022-11-18T14:02:49.804Z,3.7
2022-11-18T14:04:49.700Z,3.4
2022-11-18T14:06:49.551Z,3.4
2022-11-18T14:08:50.003Z,3.5
2022-11-18T14:10:50.500Z,2.9
2022-11-18T14:12:49.846Z,3.2
2022-11-18T14:14:49.564Z,3.2
2022-11-18T14:16:50.453Z,3.1
2022-11-18T14:18:49.949Z,3.5
2022-11-18T14:20:50.405Z,3.6
2022-11-18T14:22:49.875Z,3.3
2022-11-18T14:24:50.480Z,3.3
2022-11-18T14:26:50.125Z,3.5
2022-11-18T14:28:49.701Z,3.2
2022-11-18T14:30:50.116Z,3.3
2022-11-18T14:32:50.500Z,3.3
2022-11-18T14:34:50.324Z,3.7
2022-11-18T14:36:50.042Z,3.7
2022-11-18T14:39:19.730Z,4.1
2022-11-18T14:40:50.480Z,4.1
2022-11-18T14:42:49.872Z,4.1
2022-11-18T14:44:50.339Z,4.1
2022-11-18T14:46:50.175Z,4.4
2022-11-18T14:48:49.815Z,4.7
2022-11-18T14:50:50.201Z,4.5
2022-11-18T14:52:49.646Z,4.8
2022-11-18T14:54:50.107Z,4.8
2022-11-18T14:56:49.796Z,4.9
2022-11-18T14:58:50.412Z,4.5
2022-11-18T15:00:49.765Z,4.9
2022-11-18T15:02:50.409Z,4.9
2022-11-18T15:04:49.696Z,4.7
2022-11-18T15:06:50.414Z,4.6
2022-11-18T15:08:49.986Z,5.3
2022-11-18T15:10:50.445Z,5.2
2022-11-18T15:12:49.862Z,5.2
2022-11-18T15:14:50.301Z,4.8
2022-11-18T15:16:50.092Z,6.0
2022-11-18T15:18:49.767Z,5.3
2022-11-18T15:20:50.222Z,5.0
2022-11-18T15:22:49.795Z,5.0
2022-11-18T15:24:50.148Z,5.5
2022-11-18T15:26:49.829Z,4.6
2022-11-18T15:28:50.416Z,38.8
2022-11-18T15:30:49.748Z,38.8
2022-11-18T15:32:50.223Z,5.6
2022-11-18T15:34:50.185Z,5.4
2022-11-18T15:36:49.832Z,4.9
2022-11-18T15:38:50.217Z,5.7
2022-11-18T15:40:49.555Z,5.6
2022-11-18T15:42:52.184Z,5.6
2022-11-18T15:44:50.059Z,5.4
2022-11-18T15:46:49.809Z,6.1
2022-11-18T15:48:50.219Z,6.0
2022-11-18T15:50:54.094Z,5.7
2022-11-18T15:52:50.039Z,5.7
2022-11-18T15:54:50.414Z,5.9
2022-11-18T15:56:50.176Z,5.9
2022-11-18T15:58:49.590Z,5.9
2022-11-18T16:00:50.061Z,6.1
2022-11-18T16:02:49.886Z,6.5
2022-11-18T16:04:49.798Z,6.7
2022-11-18T16:06:49.589Z,6.9
2022-11-18T16:08:53.282Z,6.5
2022-11-18T16:10:49.806Z,6.5
2022-11-18T16:12:50.392Z,6.9
2022-11-18T16:14:49.730Z,6.8
2022-11-18T16:16:49.648Z,6.7
2022-11-18T16:18:50.021Z,6.7
2022-11-18T16:20:50.370Z,7.8
2022-11-18T16:22:49.899Z,7.2
2022-11-18T16:24:53.262Z,7.5
2022-11-18T16:26:50.173Z,7.5
2022-11-18T16:28:49.734Z,7.3
2022-11-18T16:30:50.054Z,7.3
2022-11-18T16:32:49.656Z,8.8
2022-11-18T16:34:50.528Z,9.3
2022-11-18T16:36:50.188Z,8.8
2022-11-18T16:38:49.566Z,8.8
2022-11-18T16:40:50.009Z,9.0
2022-11-18T16:42:50.538Z,9.1
2022-11-18T16:44:49.882Z,7.4
2022-11-18T16:46:49.581Z,3.7
2022-11-18T16:48:50.055Z,3.7
2022-11-18T16:50:50.383Z,3.5
2022-11-18T16:52:49.962Z,2.6
2022-11-18T16:54:50.293Z,2.6
2022-11-18T16:56:50.180Z,2.4
2022-11-18T16:58:49.564Z,2.4
2022-11-18T17:01:17.138Z,2.0
2022-11-18T17:02:49.894Z,2.0
2022-11-18T17:04:49.736Z,3.6
2022-11-18T17:06:50.442Z,3.6
2022-11-18T17:08:49.892Z,3.4
2022-11-18T17:10:50.316Z,3.1
2022-11-18T17:12:49.751Z,2.0
2022-11-18T17:14:50.125Z,2.0
2022-11-18T17:16:49.882Z,1.7
2022-11-18T17:18:50.258Z,1.7
2022-11-18T17:20:49.660Z,1.8
2022-11-18T17:22:50.227Z,2.0
2022-11-18T17:24:49.652Z,2.4
2022-11-18T17:26:50.436Z,2.4
2022-11-18T17:28:49.829Z,2.2
2022-11-18T17:30:50.320Z,2.6
2022-11-18T17:32:49.877Z,2.5
2022-11-18T17:34:49.847Z,2.9
2022-11-18T17:36:49.671Z,2.9
2022-11-18T17:38:49.978Z,3.1
2022-11-18T17:40:50.258Z,2.8
2022-11-18T17:42:49.754Z,4.1
2022-11-18T17:44:50.108Z,2.9
2022-11-18T17:46:49.991Z,2.9
2022-11-18T17:48:50.409Z,2.9
2022-11-18T17:50:49.821Z,3.0
2022-11-18T17:52:50.175Z,2.6
2022-11-18T17:54:49.559Z,2.7
2022-11-18T17:56:50.310Z,2.7
2022-11-18T17:58:49.704Z,2.6
2022-11-18T18:00:50.079Z,3.3
2022-11-18T18:02:50.514Z,3.7
2022-11-18T18:04:50.397Z,4.5
2022-11-18T18:06:50.250Z,4.5
2022-11-18T18:08:49.621Z,4.0
2022-11-18T18:10:50.177Z,4.1
2022-11-18T18:12:50.573Z,4.1
2022-11-18T18:14:49.990Z,4.4
2022-11-18T18:16:49.880Z,4.5
2022-11-18T18:18:50.352Z,5.2
2022-11-18T18:20:49.900Z,4.8
2022-11-18T18:22:50.260Z,4.2
2022-11-18T18:24:49.689Z,4.2
2022-11-18T18:26:50.496Z,3.6
2022-11-18T18:28:49.915Z,2.6
2022-11-18T18:30:49.531Z,2.6
2022-11-18T18:32:52.355Z,2.4
2022-11-18T18:34:49.546Z,2.4
2022-11-18T18:36:50.090Z,2.6
2022-11-18T18:38:50.487Z,4.1
2022-11-18T18:40:49.922Z,4.7
2022-11-18T18:42:50.288Z,4.7
2022-11-18T18:44:49.969Z,3.6
2022-11-18T18:46:49.761Z,3.6
2022-11-18T18:48:50.348Z,3.4
2022-11-18T18:50:49.704Z,3.2
2022-11-18T18:52:50.107Z,3.2
2022-11-18T18:54:49.686Z,3.3
2022-11-18T18:56:50.309Z,3.9
2022-11-18T18:58:49.917Z,3.9
2022-11-18T19:00:53.135Z,3.5
2022-11-18T19:02:49.802Z,3.2
2022-11-18T19:04:49.731Z,3.2
2022-11-18T19:06:59.238Z,3.1
2022-11-18T19:08:49.564Z,3.4
2022-11-18T19:10:49.980Z,3.4
2022-11-18T19:12:50.455Z,3.4
2022-11-18T19:14:49.816Z,3.7
2022-11-18T19:16:50.387Z,3.4
2022-11-18T19:18:49.843Z,4.1
2022-11-18T19:20:50.210Z,4.3
2022-11-18T19:22:49.749Z,4.3
2022-11-18T19:26:50.484Z,4.8
2022-11-18T19:28:49.864Z,4.5
2022-11-18T19:30:50.319Z,4.8
2022-11-18T19:32:49.811Z,4.8
2022-11-18T19:34:49.922Z,4.4
2022-11-18T19:36:49.751Z,5.0
2022-11-18T19:38:50.168Z,4.7
2022-11-18T19:40:49.741Z,4.9
2022-11-18T19:42:50.187Z,4.9
2022-11-18T19:44:49.782Z,4.5
2022-11-18T19:46:49.658Z,4.0
2022-11-18T19:48:50.156Z,4.7
2022-11-18T19:50:49.739Z,4.7
2022-11-18T19:52:50.103Z,4.0
2022-11-18T19:54:49.811Z,3.8
2022-11-18T19:56:49.573Z,3.8
2022-11-18T19:58:50.103Z,3.8
2022-11-18T20:00:50.535Z,3.5
2022-11-18T20:02:49.937Z,3.5
2022-11-18T20:04:49.889Z,4.6
2022-11-18T20:06:49.799Z,3.2
2022-11-18T20:08:50.439Z,3.5
2022-11-18T20:10:49.894Z,3.5
2022-11-18T20:12:50.456Z,3.1
2022-11-18T20:14:49.918Z,3.2
2022-11-18T20:16:49.692Z,3.5
2022-11-18T20:18:50.189Z,3.7
2022-11-18T20:20:49.580Z,3.7
2022-11-18T20:22:50.396Z,3.9
2022-11-18T20:24:49.990Z,3.5
2022-11-18T20:26:49.773Z,4.0
2022-11-18T20:28:54.408Z,4.1
2022-11-18T20:30:50.213Z,4.1
2022-11-18T20:32:49.816Z,4.4
2022-11-18T20:34:49.744Z,4.3
2022-11-18T20:36:50.528Z,4.2
2022-11-18T20:38:50.017Z,4.2
2022-11-18T20:40:49.564Z,4.2
2022-11-18T20:42:52.738Z,4.3
2022-11-18T20:44:50.420Z,4.0
2022-11-18T20:46:50.299Z,4.5
2022-11-18T20:48:49.729Z,4.5
2022-11-18T20:50:50.109Z,4.3
2022-11-18T20:52:49.683Z,4.2
2022-11-18T20:54:50.153Z,4.2
2022-11-18T20:56:49.885Z,3.8
2022-11-18T20:58:50.328Z,3.8
2022-11-18T21:00:49.731Z,3.9
2022-11-18T21:02:49.554Z,3.7
2022-11-18T21:04:49.649Z,3.4
2022-11-18T21:06:50.483Z,3.4
2022-11-18T21:08:49.850Z,3.3
2022-11-18T21:10:50.219Z,3.3
2022-11-18T21:12:49.697Z,3.3
2022-11-18T21:14:50.051Z,3.5
2022-11-18T21:16:49.972Z,3.5
2022-11-18T21:18:50.335Z,3.2
2022-11-18T21:20:49.750Z,4.1
2022-11-18T21:22:50.248Z,3.4
2022-11-18T21:24:49.631Z,3.0
2022-11-18T21:26:50.320Z,3.0
2022-11-18T21:28:49.701Z,3.2
2022-11-18T21:30:50.007Z,3.1
2022-11-18T21:32:50.515Z,3.1
2022-11-18T21:34:50.441Z,3.1
2022-11-18T21:36:53.108Z,3.3
2022-11-18T21:38:49.740Z,3.3
2022-11-18T21:40:50.115Z,3.2
2022-11-18T21:42:49.682Z,3.2
2022-11-18T21:44:50.082Z,3.5
2022-11-18T21:46:49.906Z,3.1
2022-11-18T21:48:50.318Z,3.1
2022-11-18T21:50:49.652Z,3.5
2022-11-18T21:52:50.199Z,4.0
2022-11-18T21:54:49.630Z,4.0
2022-11-18T21:56:50.325Z,3.9
2022-11-18T21:58:49.762Z,3.8
2022-11-18T22:00:50.114Z,3.9
2022-11-18T22:02:50.005Z,3.6
2022-11-18T22:04:49.822Z,3.6
2022-11-18T22:06:49.582Z,3.9
2022-11-18T22:08:49.964Z,3.3
2022-11-18T22:10:50.431Z,3.5
2022-11-18T22:12:49.759Z,3.5
2022-11-18T22:14:50.123Z,3.4
2022-11-18T22:16:49.884Z,3.7
2022-11-18T22:18:54.987Z,2.8
2022-11-18T22:20:50.146Z,3.1
2022-11-18T22:22:49.679Z,3.1
2022-11-18T22:24:50.125Z,3.1
2022-11-18T22:26:49.765Z,3.0
2022-11-18T22:28:50.274Z,3.1
2022-11-18T22:30:49.686Z,3.0
2022-11-18T22:32:50.237Z,4.0
2022-11-18T22:34:51.855Z,4.0
2022-11-18T22:36:49.782Z,4.0
2022-11-18T22:38:50.168Z,4.1
2022-11-18T22:40:49.581Z,4.1
2022-11-18T22:42:50.215Z,4.2
2022-11-18T22:44:49.645Z,4.2
2022-11-18T22:46:50.281Z,4.1
2022-11-18T22:48:49.654Z,4.4
2022-11-18T22:50:50.163Z,4.7
2022-11-18T22:52:49.762Z,4.7
2022-11-18T22:54:50.169Z,4.5
2022-11-18T22:56:49.984Z,4.7
2022-11-18T22:58:50.363Z,5.0
2022-11-18T23:00:49.762Z,5.0
2022-11-18T23:02:50.379Z,5.2
2022-11-18T23:04:50.267Z,5.2
2022-11-18T23:06:49.964Z,4.9
2022-11-18T23:08:50.330Z,5.4
2022-11-18T23:10:49.667Z,5.2
2022-11-18T23:12:50.161Z,5.2
2022-11-18T23:14:50.533Z,5.1
2022-11-18T23:16:50.388Z,5.1
2022-11-18T23:18:49.851Z,6.0
2022-11-18T23:20:50.206Z,6.3
2022-11-18T23:22:49.773Z,5.7
2022-11-18T23:24:50.195Z,5.7
2022-11-18T23:26:49.934Z,6.1
2022-11-18T23:28:50.344Z,6.5
2022-11-18T23:30:49.673Z,6.0
2022-11-18T23:32:50.208Z,6.0
2022-11-18T23:34:50.022Z,6.2
2022-11-18T23:36:49.790Z,7.1
2022-11-18T23:38:50.202Z,6.9
2022-11-18T23:40:49.578Z,6.9
2022-11-18T23:42:50.104Z,7.0
2022-11-18T23:44:50.458Z,7.4
2022-11-18T23:46:50.287Z,8.4
2022-11-18T23:48:49.678Z,8.4
2022-11-18T23:50:50.036Z,8.4
2022-11-18T23:52:49.589Z,9.6
2022-11-18T23:54:49.926Z,9.3
2022-11-18T23:56:49.721Z,9.9
2022-11-18T23:58:50.252Z,9.9
